createdAt,value
2022-09-23T00:01:27.293Z,10.98
2022-09-23T00:04:29.319Z,10.94
2022-09-23T00:07:44.253Z,10.99
2022-09-23T00:10:46.072Z,10.95
2022-09-23T00:14:04.257Z,10.90
2022-09-23T00:17:13.163Z,10.87
2022-09-23T00:20:21.251Z,10.83
2022-09-23T00:23:36.290Z,10.57
2022-09-23T00:26:51.307Z,10.73
2022-09-23T00:29:59.276Z,10.75
2022-09-23T00:33:14.541Z,10.72
2022-09-23T00:36:23.279Z,10.65
2022-09-23T00:39:32.003Z,10.62
2022-09-23T00:42:56.449Z,10.61
2022-09-23T00:45:58.350Z,10.63
2022-09-23T00:49:22.292Z,10.56
2022-09-23T00:52:31.534Z,10.52
2022-09-23T00:55:46.263Z,10.50
2022-09-23T00:58:54.944Z,10.47
2022-09-23T01:02:10.296Z,10.41
2022-09-23T01:05:12.747Z,10.39
2022-09-23T01:08:29.276Z,10.38
2022-09-23T01:11:42.488Z,10.40
2022-09-23T01:15:13.299Z,10.34
2022-09-23T01:18:49.287Z,10.33
2022-09-23T01:22:16.287Z,10.31
2022-09-23T01:25:52.099Z,10.23
2022-09-23T01:29:31.282Z,10.25
2022-09-23T01:33:04.279Z,10.23
2022-09-23T01:36:34.301Z,10.23
2022-09-23T01:40:06.336Z,10.22
2022-09-23T01:43:16.095Z,10.20
2022-09-23T01:46:42.296Z,10.20
2022-09-23T01:50:04.314Z,10.20
2022-09-23T01:53:19.687Z,10.14
2022-09-23T01:56:40.359Z,10.13
2022-09-23T01:59:57.344Z,10.09
2022-09-23T02:03:15.046Z,10.09
2022-09-23T02:06:35.308Z,10.10
2022-09-23T02:09:50.298Z,10.12
2022-09-23T02:13:03.480Z,10.12
2022-09-23T02:16:33.433Z,10.12
2022-09-23T02:19:44.504Z,10.10
2022-09-23T02:23:08.309Z,10.12
2022-09-23T02:26:18.745Z,10.10
2022-09-23T02:29:42.364Z,10.10
2022-09-23T02:33:13.306Z,10.06
2022-09-23T02:36:29.459Z,10.05
2022-09-23T02:40:01.307Z,10.10
2022-09-23T02:43:34.375Z,10.08
2022-09-23T02:46:36.969Z,10.02
2022-09-23T02:49:52.370Z,10.04
2022-09-23T02:53:01.176Z,10.06
2022-09-23T02:56:21.320Z,10.01
2022-09-23T02:59:30.618Z,10.00
2022-09-23T03:03:00.336Z,9.99
2022-09-23T03:06:32.308Z,10.02
2022-09-23T03:10:01.359Z,10.08
2022-09-23T03:13:36.945Z,10.04
2022-09-23T03:16:56.230Z,10.00
2022-09-23T03:20:19.336Z,9.97
2022-09-23T03:23:27.148Z,9.89
2022-09-23T03:26:45.327Z,9.84
2022-09-23T03:30:01.332Z,9.79
2022-09-23T03:33:08.099Z,9.73
2022-09-23T03:36:37.344Z,9.65
2022-09-23T03:39:47.892Z,9.63
2022-09-23T03:43:05.334Z,9.58
2022-09-23T03:46:14.065Z,9.54
2022-09-23T03:49:26.356Z,9.61
2022-09-23T03:52:41.340Z,9.53
2022-09-23T03:55:49.955Z,9.42
2022-09-23T03:58:58.338Z,9.36
2022-09-23T04:02:07.797Z,9.37
2022-09-23T04:05:18.347Z,9.38
2022-09-23T04:08:27.264Z,9.31
2022-09-23T04:11:42.338Z,9.30
2022-09-23T04:14:44.467Z,9.29
2022-09-23T04:17:59.352Z,9.33
2022-09-23T04:21:14.360Z,9.30
2022-09-23T04:24:17.266Z,9.28
2022-09-23T04:27:37.397Z,9.33
2022-09-23T04:30:41.372Z,9.36
2022-09-23T04:33:57.362Z,9.34
2022-09-23T04:37:12.636Z,9.29
2022-09-23T04:40:21.428Z,9.26
2022-09-23T04:43:36.366Z,9.23
2022-09-23T04:46:51.463Z,9.22
2022-09-23T04:50:00.046Z,9.22
2022-09-23T04:53:08.972Z,9.23
2022-09-23T04:56:34.379Z,9.28
2022-09-23T04:59:36.224Z,9.31
2022-09-23T05:02:53.381Z,9.33
2022-09-23T05:06:05.428Z,9.36
2022-09-23T05:09:23.357Z,9.49
2022-09-23T05:12:32.268Z,9.52
2022-09-23T05:15:40.398Z,9.62
2022-09-23T05:18:50.453Z,9.66
2022-09-23T05:22:05.405Z,9.69
2022-09-23T05:25:07.511Z,9.75
2022-09-23T05:28:22.387Z,9.68
2022-09-23T05:31:38.485Z,9.90
2022-09-23T05:34:53.594Z,9.97
2022-09-23T05:38:08.436Z,9.98
2022-09-23T05:41:13.171Z,10.10
2022-09-23T05:44:28.396Z,10.11
2022-09-23T05:47:43.445Z,10.17
2022-09-23T05:50:52.783Z,10.24
2022-09-23T05:54:08.485Z,10.41
2022-09-23T05:57:17.096Z,10.45
2022-09-23T06:00:25.471Z,10.51
2022-09-23T06:03:34.072Z,10.56
2022-09-23T06:06:45.400Z,10.60
2022-09-23T06:09:54.047Z,10.68
2022-09-23T06:13:08.459Z,10.73
2022-09-23T06:16:13.287Z,10.78
2022-09-23T06:19:28.444Z,10.90
2022-09-23T06:22:43.434Z,10.89
2022-09-23T06:25:51.466Z,10.95
2022-09-23T06:29:01.595Z,10.98
2022-09-23T06:32:10.461Z,11.11
2022-09-23T06:35:33.510Z,11.20
2022-09-23T06:38:42.973Z,11.28
2022-09-23T06:41:51.443Z,11.28
2022-09-23T06:45:00.068Z,11.28
2022-09-23T06:48:14.402Z,11.38
2022-09-23T06:51:23.472Z,11.52
2022-09-23T06:54:41.404Z,11.67
2022-09-23T06:57:49.463Z,11.77
2022-09-23T07:01:15.548Z,11.86
2022-09-23T07:04:29.131Z,11.92
2022-09-23T07:07:37.502Z,12.01
2022-09-23T07:10:58.487Z,12.17
2022-09-23T07:14:13.672Z,12.20
2022-09-23T07:17:22.463Z,12.24
2022-09-23T07:20:32.364Z,12.36
2022-09-23T07:23:49.432Z,12.41
2022-09-23T07:27:01.663Z,12.53
2022-09-23T07:30:24.447Z,12.65
2022-09-23T07:33:48.491Z,12.72
2022-09-23T07:37:03.483Z,12.82
2022-09-23T07:40:13.188Z,12.90
2022-09-23T07:43:21.447Z,12.85
2022-09-23T07:46:39.477Z,13.00
2022-09-23T07:49:48.163Z,13.08
2022-09-23T07:52:56.443Z,13.31
2022-09-23T07:56:12.566Z,13.12
2022-09-23T07:59:34.476Z,13.12
2022-09-23T08:02:43.058Z,13.38
2022-09-23T08:05:57.537Z,13.40
2022-09-23T08:09:12.520Z,13.47
2022-09-23T08:12:24.496Z,13.58
2022-09-23T08:15:33.162Z,13.48
2022-09-23T08:18:41.713Z,13.56
2022-09-23T08:21:57.509Z,13.74
2022-09-23T08:25:13.704Z,13.86
2022-09-23T08:28:22.108Z,13.85
2022-09-23T08:31:30.476Z,13.96
2022-09-23T08:34:39.199Z,13.98
2022-09-23T08:38:00.516Z,14.21
2022-09-23T08:41:32.487Z,14.19
2022-09-23T08:44:55.469Z,14.21
2022-09-23T08:48:17.480Z,14.35
2022-09-23T08:51:40.471Z,14.44
2022-09-23T08:54:42.351Z,14.32
2022-09-23T08:58:26.833Z,14.51
2022-09-23T09:01:41.464Z,14.62
2022-09-23T09:05:01.492Z,14.66
2022-09-23T09:08:12.227Z,14.85
2022-09-23T09:11:22.508Z,14.97
2022-09-23T09:14:46.542Z,14.95
2022-09-23T09:18:16.554Z,14.72
2022-09-23T09:21:40.564Z,14.59
2022-09-23T09:24:49.448Z,14.40
2022-09-23T09:27:59.584Z,14.53
2022-09-23T09:31:30.610Z,14.51
2022-09-23T09:35:02.501Z,14.51
2022-09-23T09:38:17.591Z,14.79
2022-09-23T09:41:34.606Z,15.11
2022-09-23T09:44:42.381Z,15.12
2022-09-23T09:48:12.544Z,15.18
2022-09-23T09:51:31.508Z,15.43
2022-09-23T09:54:40.488Z,15.76
2022-09-23T09:57:59.396Z,15.97
2022-09-23T10:01:14.534Z,16.07
2022-09-23T10:04:29.561Z,16.27
2022-09-23T10:07:38.202Z,16.24
2022-09-23T10:10:57.541Z,16.62
2022-09-23T10:14:20.464Z,16.79
2022-09-23T10:17:40.476Z,16.70
2022-09-23T10:20:42.440Z,16.64
2022-09-23T10:24:01.507Z,16.51
2022-09-23T10:27:17.566Z,16.54
2022-09-23T10:30:23.053Z,17.12
2022-09-23T10:33:56.517Z,17.34
2022-09-23T10:37:21.541Z,17.44
2022-09-23T10:40:33.604Z,17.61
2022-09-23T10:44:14.524Z,17.54
2022-09-23T10:47:48.549Z,17.40
2022-09-23T10:50:53.210Z,17.61
2022-09-23T10:54:27.496Z,17.58
2022-09-23T10:57:59.364Z,17.36
2022-09-23T11:01:37.560Z,17.17
2022-09-23T11:05:07.574Z,17.61
2022-09-23T11:08:33.805Z,17.42
2022-09-23T11:12:06.560Z,17.31
2022-09-23T11:15:32.492Z,17.31
2022-09-23T11:19:00.415Z,17.70
2022-09-23T11:22:31.797Z,23.14
2022-09-23T11:25:57.556Z,26.26
2022-09-23T11:29:24.204Z,27.13
2022-09-23T11:32:52.589Z,26.12
2022-09-23T11:36:24.568Z,23.42
2022-09-23T11:39:41.609Z,23.87
2022-09-23T11:43:03.635Z,24.16
2022-09-23T11:46:38.548Z,25.38
2022-09-23T11:49:55.416Z,23.86
2022-09-23T11:53:13.562Z,25.93
2022-09-23T11:56:34.769Z,22.60
2022-09-23T11:59:58.583Z,24.16
2022-09-23T12:03:16.221Z,27.65
2022-09-23T12:06:40.576Z,29.63
2022-09-23T12:10:01.440Z,27.27
2022-09-23T12:13:25.657Z,30.07
2022-09-23T12:16:58.807Z,29.72
2022-09-23T12:20:24.610Z,29.66
2022-09-23T12:23:59.688Z,29.58
2022-09-23T12:27:22.701Z,28.38
2022-09-23T12:30:30.062Z,27.50
2022-09-23T12:33:45.609Z,24.20
2022-09-23T12:37:00.663Z,22.50
2022-09-23T12:40:20.781Z,21.62
2022-09-23T12:43:38.676Z,20.69
2022-09-23T12:46:53.760Z,20.55
2022-09-23T12:49:56.408Z,20.08
2022-09-23T12:53:31.632Z,20.13
2022-09-23T12:57:00.695Z,19.99
2022-09-23T13:00:34.265Z,20.13
2022-09-23T13:04:00.683Z,19.77
2022-09-23T13:07:08.126Z,19.48
2022-09-23T13:10:34.614Z,18.85
2022-09-23T13:13:52.695Z,18.37
2022-09-23T13:16:56.448Z,18.40
2022-09-23T13:20:33.645Z,18.40
2022-09-23T13:23:42.940Z,18.40
2022-09-23T13:26:56.380Z,18.33
2022-09-23T13:30:08.713Z,18.38
2022-09-23T13:33:25.638Z,18.38
2022-09-23T13:36:53.639Z,18.12
2022-09-23T13:40:10.427Z,18.00
2022-09-23T13:43:31.620Z,17.88
2022-09-23T13:46:52.643Z,17.83
2022-09-23T13:49:54.720Z,17.69
2022-09-23T13:53:16.701Z,17.56
2022-09-23T13:56:18.835Z,17.67
2022-09-23T13:59:37.704Z,17.93
2022-09-23T14:02:46.496Z,18.05
2022-09-23T14:05:55.778Z,18.08
2022-09-23T14:09:06.412Z,18.05
2022-09-23T14:12:21.653Z,17.63
2022-09-23T14:15:24.083Z,17.59
2022-09-23T14:18:43.721Z,17.49
2022-09-23T14:21:50.876Z,17.49
2022-09-23T14:25:06.729Z,17.39
2022-09-23T14:28:18.631Z,17.27
2022-09-23T14:31:26.770Z,17.26
2022-09-23T14:34:55.748Z,17.21
2022-09-23T14:38:11.159Z,17.13
2022-09-23T14:41:25.694Z,17.16
2022-09-23T14:44:34.716Z,17.23
2022-09-23T14:47:54.720Z,17.29
2022-09-23T14:51:06.706Z,17.30
2022-09-23T14:54:35.377Z,17.28
2022-09-23T14:57:45.701Z,17.19
2022-09-23T15:00:58.369Z,17.24
2022-09-23T15:04:19.775Z,17.33
2022-09-23T15:07:28.569Z,17.36
2022-09-23T15:10:46.728Z,17.36
2022-09-23T15:14:14.042Z,17.30
2022-09-23T15:17:34.563Z,17.16
2022-09-23T15:20:56.791Z,17.22
2022-09-23T15:23:58.734Z,17.26
2022-09-23T15:27:33.780Z,17.25
2022-09-23T15:30:36.860Z,17.19
2022-09-23T15:33:53.717Z,17.24
2022-09-23T15:37:11.562Z,17.11
2022-09-23T15:40:31.781Z,17.11
2022-09-23T15:43:41.100Z,17.03
2022-09-23T15:46:57.691Z,17.05
2022-09-23T15:50:05.723Z,16.97
2022-09-23T15:53:17.355Z,16.93
2022-09-23T15:56:25.741Z,16.87
2022-09-23T15:59:40.739Z,16.77
2022-09-23T16:02:56.881Z,16.80
2022-09-23T16:06:01.325Z,16.78
2022-09-23T16:09:15.739Z,16.75
2022-09-23T16:12:23.747Z,16.75
2022-09-23T16:15:33.054Z,16.76
2022-09-23T16:18:41.825Z,16.70
2022-09-23T16:21:56.752Z,16.68
2022-09-23T16:25:12.778Z,16.72
2022-09-23T16:28:20.898Z,16.71
2022-09-23T16:31:35.849Z,16.69
2022-09-23T16:34:57.791Z,16.62
2022-09-23T16:38:12.731Z,16.50
2022-09-23T16:41:21.781Z,16.48
2022-09-23T16:44:36.831Z,16.45
2022-09-23T16:47:43.159Z,16.46
2022-09-23T16:50:57.845Z,16.42
2022-09-23T16:54:06.768Z,16.38
2022-09-23T16:57:21.890Z,16.34
2022-09-23T17:00:30.604Z,16.27
2022-09-23T17:03:38.849Z,16.20
2022-09-23T17:06:56.869Z,16.14
2022-09-23T17:10:04.829Z,15.99
2022-09-23T17:13:13.371Z,15.93
2022-09-23T17:16:33.888Z,15.83
2022-09-23T17:19:44.768Z,15.79
2022-09-23T17:22:59.824Z,15.70
2022-09-23T17:26:15.009Z,15.64
2022-09-23T17:29:16.905Z,15.56
2022-09-23T17:32:33.797Z,15.56
2022-09-23T17:35:55.784Z,15.49
2022-09-23T17:39:10.836Z,15.37
2022-09-23T17:42:19.437Z,15.29
2022-09-23T17:45:27.865Z,15.19
2022-09-23T17:48:46.040Z,15.13
2022-09-23T17:52:00.812Z,15.00
2022-09-23T17:55:02.757Z,15.00
2022-09-23T17:58:17.829Z,15.01
2022-09-23T18:01:32.891Z,15.02
2022-09-23T18:04:40.851Z,14.96
2022-09-23T18:08:05.357Z,14.90
2022-09-23T18:11:21.126Z,14.81
2022-09-23T18:14:29.815Z,14.72
2022-09-23T18:17:44.784Z,14.62
2022-09-23T18:20:46.692Z,14.57
2022-09-23T18:27:40.890Z,14.45
2022-09-23T18:30:53.308Z,14.37
2022-09-23T18:34:10.920Z,14.31
2022-09-23T18:37:33.073Z,14.26
2022-09-23T18:40:41.952Z,14.20
2022-09-23T18:43:50.596Z,14.18
2022-09-23T18:47:04.886Z,14.20
2022-09-23T18:50:13.832Z,14.20
2022-09-23T18:53:28.888Z,14.16
2022-09-23T18:56:33.557Z,14.13
2022-09-23T18:59:48.841Z,14.05
2022-09-23T19:03:03.843Z,13.94
2022-09-23T19:06:21.068Z,13.82
2022-09-23T19:09:29.914Z,13.71
2022-09-23T19:12:44.875Z,13.60
2022-09-23T19:15:46.739Z,13.49
2022-09-23T19:19:01.847Z,13.43
2022-09-23T19:22:09.816Z,13.30
2022-09-23T19:25:18.448Z,13.26
2022-09-23T19:28:32.912Z,13.22
2022-09-23T19:31:37.780Z,13.14
2022-09-23T19:34:52.852Z,13.08
2022-09-23T19:38:14.883Z,13.09
2022-09-23T19:41:16.728Z,13.02
2022-09-23T19:44:33.868Z,13.02
2022-09-23T19:47:42.474Z,12.97
2022-09-23T19:50:53.894Z,12.88
2022-09-23T19:54:10.969Z,12.80
2022-09-23T19:57:19.922Z,12.68
2022-09-23T20:00:34.929Z,12.68
2022-09-23T20:03:44.452Z,12.66
2022-09-23T20:06:52.871Z,12.60
2022-09-23T20:10:01.413Z,12.53
2022-09-23T20:13:15.868Z,12.49
2022-09-23T20:16:19.603Z,12.54
2022-09-23T20:19:33.913Z,12.56
2022-09-23T20:22:36.200Z,12.52
2022-09-23T20:25:50.940Z,12.52
2022-09-23T20:28:59.388Z,12.55
2022-09-23T20:32:08.008Z,12.46
2022-09-23T20:35:29.899Z,12.47
2022-09-23T20:38:45.932Z,12.44
2022-09-23T20:41:53.915Z,12.36
2022-09-23T20:45:08.901Z,12.34
2022-09-23T20:48:16.891Z,12.34
2022-09-23T20:51:25.664Z,12.29
2022-09-23T20:54:39.883Z,12.19
2022-09-23T20:57:41.681Z,12.13
2022-09-23T21:00:55.924Z,12.15
2022-09-23T21:04:11.915Z,12.15
2022-09-23T21:07:19.903Z,12.07
2022-09-23T21:10:28.476Z,12.06
2022-09-23T21:13:37.921Z,12.07
2022-09-23T21:16:52.924Z,12.05
2022-09-23T21:20:07.928Z,11.92
2022-09-23T21:23:15.946Z,11.88
2022-09-23T21:26:25.760Z,11.78
2022-09-23T21:29:40.908Z,11.77
2022-09-23T21:32:42.692Z,11.77
2022-09-23T21:36:06.940Z,11.57
2022-09-23T21:39:21.916Z,11.36
2022-09-23T21:42:23.786Z,11.47
2022-09-23T21:45:38.884Z,11.47
2022-09-23T21:48:48.918Z,11.47
2022-09-23T21:52:03.936Z,11.43
2022-09-23T21:55:19.954Z,11.42
2022-09-23T21:58:21.921Z,11.46
2022-09-23T22:01:38.949Z,11.43
2022-09-23T22:04:54.921Z,11.42
2022-09-23T22:08:02.977Z,11.38
2022-09-23T22:11:13.928Z,11.28
2022-09-23T22:14:23.963Z,11.28
2022-09-23T22:17:38.916Z,11.30
2022-09-23T22:20:47.591Z,11.29
2022-09-23T22:23:58.920Z,11.35
2022-09-23T22:27:16.040Z,11.33
2022-09-23T22:30:23.949Z,11.34
2022-09-23T22:33:38.944Z,11.32
2022-09-23T22:37:03.939Z,11.29
2022-09-23T22:40:21.052Z,11.22
2022-09-23T22:43:35.947Z,11.19
2022-09-23T22:46:52.039Z,11.22
2022-09-23T22:49:54.224Z,11.16
2022-09-23T22:53:08.962Z,11.19
2022-09-23T22:56:18.008Z,11.19
2022-09-23T22:59:25.945Z,11.22
2022-09-23T23:02:40.947Z,11.20
2022-09-23T23:05:48.961Z,11.17
2022-09-23T23:08:57.507Z,11.11
2022-09-23T23:12:12.035Z,11.07
2022-09-23T23:15:13.768Z,11.02
2022-09-23T23:18:28.953Z,11.04
2022-09-23T23:21:37.978Z,10.98
2022-09-23T23:24:52.975Z,10.91
2022-09-23T23:28:07.962Z,10.81
2022-09-23T23:31:11.932Z,10.71
2022-09-23T23:34:28.013Z,10.69
2022-09-23T23:37:43.305Z,10.64
2022-09-23T23:40:52.011Z,10.55
2022-09-23T23:44:08.028Z,10.56
2022-09-23T23:47:23.054Z,10.54
2022-09-23T23:50:31.046Z,10.53
2022-09-23T23:53:41.262Z,10.60
2022-09-23T23:56:49.945Z,10.60
2022-09-23T23:59:58.594Z,10.58
